sensor_id;sensor_type;location;lat;lon;timestamp;temperature;humidity
31687;DHT22;18285;51.330;4.946;2022-11-03T00:00:51;23.50;43.80
31687;DHT22;18285;51.330;4.946;2022-11-03T00:25:02;23.40;43.70
31687;DHT22;18285;51.330;4.946;2022-11-03T00:49:13;23.40;43.60
31687;DHT22;18285;51.330;4.946;2022-11-03T01:13:23;23.40;43.70
31687;DHT22;18285;51.330;4.946;2022-11-03T01:37:34;23.40;43.90
31687;DHT22;18285;51.330;4.946;2022-11-03T02:01:45;23.50;43.80
31687;DHT22;18285;51.330;4.946;2022-11-03T02:25:57;23.40;43.60
31687;DHT22;18285;51.330;4.946;2022-11-03T02:50:09;23.50;43.90
31687;DHT22;18285;51.330;4.946;2022-11-03T03:14:32;23.50;43.60
31687;DHT22;18285;51.330;4.946;2022-11-03T03:38:48;23.50;43.70
31687;DHT22;18285;51.330;4.946;2022-11-03T04:03:00;23.50;43.90
31687;DHT22;18285;51.330;4.946;2022-11-03T04:27:26;23.50;43.90
31687;DHT22;18285;51.330;4.946;2022-11-03T04:51:37;23.50;44.20
31687;DHT22;18285;51.330;4.946;2022-11-03T05:15:51;23.50;43.80
31687;DHT22;18285;51.330;4.946;2022-11-03T05:40:24;23.50;44.10
31687;DHT22;18285;51.330;4.946;2022-11-03T06:04:37;23.50;44.30
31687;DHT22;18285;51.330;4.946;2022-11-03T06:28:50;23.50;44.50
31687;DHT22;18285;51.330;4.946;2022-11-03T06:53:02;23.50;44.40
31687;DHT22;18285;51.330;4.946;2022-11-03T07:17:14;23.40;44.50
31687;DHT22;18285;51.330;4.946;2022-11-03T07:41:28;23.50;44.50
31687;DHT22;18285;51.330;4.946;2022-11-03T08:05:40;23.50;44.50
31687;DHT22;18285;51.330;4.946;2022-11-03T08:29:51;23.50;44.60
31687;DHT22;18285;51.330;4.946;2022-11-03T08:54:02;23.50;44.50
31687;DHT22;18285;51.330;4.946;2022-11-03T09:18:13;23.50;44.50
31687;DHT22;18285;51.330;4.946;2022-11-03T09:42:24;23.50;44.60
31687;DHT22;18285;51.330;4.946;2022-11-03T10:06:35;23.50;44.50
31687;DHT22;18285;51.330;4.946;2022-11-03T10:30:51;23.50;44.50
31687;DHT22;18285;51.330;4.946;2022-11-03T10:55:03;23.50;44.60
31687;DHT22;18285;51.330;4.946;2022-11-03T11:19:13;23.60;44.90
31687;DHT22;18285;51.330;4.946;2022-11-03T11:43:25;23.60;44.50
31687;DHT22;18285;51.330;4.946;2022-11-03T12:07:36;23.50;44.60
31687;DHT22;18285;51.330;4.946;2022-11-03T12:31:47;23.60;44.50
31687;DHT22;18285;51.330;4.946;2022-11-03T12:55:58;23.60;44.70
31687;DHT22;18285;51.330;4.946;2022-11-03T13:20:09;23.60;44.90
31687;DHT22;18285;51.330;4.946;2022-11-03T13:44:20;23.60;44.90
31687;DHT22;18285;51.330;4.946;2022-11-03T14:08:30;23.60;44.50
31687;DHT22;18285;51.330;4.946;2022-11-03T14:32:41;23.60;44.80
31687;DHT22;18285;51.330;4.946;2022-11-03T14:56:52;23.60;44.90
31687;DHT22;18285;51.330;4.946;2022-11-03T15:21:03;23.60;44.90
31687;DHT22;18285;51.330;4.946;2022-11-03T15:45:14;23.60;44.90
31687;DHT22;18285;51.330;4.946;2022-11-03T16:09:24;23.60;44.70
31687;DHT22;18285;51.330;4.946;2022-11-03T16:33:35;23.50;44.80
31687;DHT22;18285;51.330;4.946;2022-11-03T16:57:46;23.60;44.90
31687;DHT22;18285;51.330;4.946;2022-11-03T17:21:56;23.50;45.10
31687;DHT22;18285;51.330;4.946;2022-11-03T17:46:07;23.60;45.30
31687;DHT22;18285;51.330;4.946;2022-11-03T18:10:18;23.60;45.30
31687;DHT22;18285;51.330;4.946;2022-11-03T18:34:30;23.60;45.30
31687;DHT22;18285;51.330;4.946;2022-11-03T18:58:41;23.70;46.00
31687;DHT22;18285;51.330;4.946;2022-11-03T19:22:51;23.50;46.40
31687;DHT22;18285;51.330;4.946;2022-11-03T19:47:03;23.50;46.60
31687;DHT22;18285;51.330;4.946;2022-11-03T20:11:13;23.50;46.80
31687;DHT22;18285;51.330;4.946;2022-11-03T20:35:26;23.50;46.80
31687;DHT22;18285;51.330;4.946;2022-11-03T20:59:39;23.50;46.50
31687;DHT22;18285;51.330;4.946;2022-11-03T21:23:50;23.50;46.30
31687;DHT22;18285;51.330;4.946;2022-11-03T21:48:01;23.40;46.20
31687;DHT22;18285;51.330;4.946;2022-11-03T22:12:30;23.60;44.90
31687;DHT22;18285;51.330;4.946;2022-11-03T22:36:41;23.50;45.00
31687;DHT22;18285;51.330;4.946;2022-11-03T23:00:52;23.40;45.40
31687;DHT22;18285;51.330;4.946;2022-11-03T23:25:03;23.50;45.40
31687;DHT22;18285;51.330;4.946;2022-11-03T23:49:14;23.50;45.00
